sensor_id;sensor_type;location;lat;lon;timestamp;pressure;altitude;pressure_sealevel;temperature;humidity
26978;BME280;56314;48.088;11.642;2023-05-08T00:00:31;95630.78;;;15.04;74.60
26978;BME280;56314;48.088;11.642;2023-05-08T00:02:57;95623.56;;;14.97;74.67
26978;BME280;56314;48.088;11.642;2023-05-08T00:05:22;95633.00;;;14.99;74.55
26978;BME280;56314;48.088;11.642;2023-05-08T00:07:47;95632.19;;;14.99;74.05
26978;BME280;56314;48.088;11.642;2023-05-08T00:10:15;95635.53;;;15.01;73.88
26978;BME280;56314;48.088;11.642;2023-05-08T00:12:40;95636.22;;;15.03;73.36
26978;BME280;56314;48.088;11.642;2023-05-08T00:15:06;95637.75;;;14.96;73.14
26978;BME280;56314;48.088;11.642;2023-05-08T00:17:31;95634.56;;;14.92;73.41
26978;BME280;56314;48.088;11.642;2023-05-08T00:19:58;95643.59;;;14.89;73.51
26978;BME280;56314;48.088;11.642;2023-05-08T00:22:23;95640.97;;;14.89;73.07
26978;BME280;56314;48.088;11.642;2023-05-08T00:24:48;95645.56;;;14.87;73.90
26978;BME280;56314;48.088;11.642;2023-05-08T00:27:14;95647.22;;;14.88;73.50
26978;BME280;56314;48.088;11.642;2023-05-08T00:29:41;95647.50;;;14.95;73.79
26978;BME280;56314;48.088;11.642;2023-05-08T00:32:09;95649.16;;;14.86;73.91
26978;BME280;56314;48.088;11.642;2023-05-08T00:34:34;95653.34;;;14.79;74.56
26978;BME280;56314;48.088;11.642;2023-05-08T00:37:00;95658.47;;;14.71;73.93
26978;BME280;56314;48.088;11.642;2023-05-08T00:39:26;95649.56;;;14.72;73.83
26978;BME280;56314;48.088;11.642;2023-05-08T00:41:52;95653.88;;;14.73;74.45
26978;BME280;56314;48.088;11.642;2023-05-08T00:44:17;95651.78;;;14.76;73.91
26978;BME280;56314;48.088;11.642;2023-05-08T00:46:43;95650.69;;;14.69;73.81
26978;BME280;56314;48.088;11.642;2023-05-08T00:49:10;95647.47;;;14.66;73.69
26978;BME280;56314;48.088;11.642;2023-05-08T00:51:42;95645.75;;;14.55;74.51
26978;BME280;56314;48.088;11.642;2023-05-08T00:54:09;95649.53;;;14.52;75.14
26978;BME280;56314;48.088;11.642;2023-05-08T00:56:36;95648.13;;;14.48;75.30
26978;BME280;56314;48.088;11.642;2023-05-08T00:59:03;95647.56;;;14.44;75.45
26978;BME280;56314;48.088;11.642;2023-05-08T01:01:40;95645.19;;;14.41;76.19
26978;BME280;56314;48.088;11.642;2023-05-08T01:04:07;95646.56;;;14.36;76.09
26978;BME280;56314;48.088;11.642;2023-05-08T01:06:32;95651.00;;;14.25;76.35
26978;BME280;56314;48.088;11.642;2023-05-08T01:08:59;95648.34;;;14.25;76.26
26978;BME280;56314;48.088;11.642;2023-05-08T01:11:38;95652.09;;;14.23;76.57
26978;BME280;56314;48.088;11.642;2023-05-08T01:14:09;95654.69;;;14.13;76.94
26978;BME280;56314;48.088;11.642;2023-05-08T01:21:39;95653.19;;;14.10;76.63
26978;BME280;56314;48.088;11.642;2023-05-08T01:24:30;95660.38;;;14.08;78.09
26978;BME280;56314;48.088;11.642;2023-05-08T01:27:39;95664.41;;;14.03;77.66
26978;BME280;56314;48.088;11.642;2023-05-08T01:30:32;95664.41;;;14.03;77.66
26978;BME280;56314;48.088;11.642;2023-05-08T01:38:54;95661.41;;;13.86;78.25
26978;BME280;56314;48.088;11.642;2023-05-08T01:41:26;95677.25;;;13.86;78.37
26978;BME280;56314;48.088;11.642;2023-05-08T01:46:39;95673.31;;;13.80;78.54
26978;BME280;56314;48.088;11.642;2023-05-08T01:49:57;95682.81;;;13.83;79.13
26978;BME280;56314;48.088;11.642;2023-05-08T01:52:02;95683.63;;;13.83;79.07
26978;BME280;56314;48.088;11.642;2023-05-08T01:54:34;95682.41;;;13.88;78.92
26978;BME280;56314;48.088;11.642;2023-05-08T01:57:00;95684.59;;;13.82;79.11
26978;BME280;56314;48.088;11.642;2023-05-08T01:59:30;95684.91;;;13.89;79.31
26978;BME280;56314;48.088;11.642;2023-05-08T02:01:57;95691.00;;;13.90;79.35
26978;BME280;56314;48.088;11.642;2023-05-08T02:04:26;95685.69;;;13.80;79.44
26978;BME280;56314;48.088;11.642;2023-05-08T02:06:52;95696.44;;;13.88;79.16
26978;BME280;56314;48.088;11.642;2023-05-08T02:09:20;95689.06;;;13.82;79.08
26978;BME280;56314;48.088;11.642;2023-05-08T02:11:48;95687.81;;;13.86;79.49
26978;BME280;56314;48.088;11.642;2023-05-08T02:14:18;95692.13;;;13.87;80.12
26978;BME280;56314;48.088;11.642;2023-05-08T02:16:45;95696.13;;;13.81;80.69
26978;BME280;56314;48.088;11.642;2023-05-08T02:19:13;95705.25;;;13.77;80.52
26978;BME280;56314;48.088;11.642;2023-05-08T02:21:40;95695.28;;;13.81;80.48
26978;BME280;56314;48.088;11.642;2023-05-08T02:24:08;95697.09;;;13.80;79.81
26978;BME280;56314;48.088;11.642;2023-05-08T02:26:35;95702.44;;;13.69;78.45
26978;BME280;56314;48.088;11.642;2023-05-08T02:29:02;95696.97;;;13.61;78.19
26978;BME280;56314;48.088;11.642;2023-05-08T02:31:28;95697.81;;;13.61;78.77
26978;BME280;56314;48.088;11.642;2023-05-08T02:33:55;95698.09;;;13.58;79.39
26978;BME280;56314;48.088;11.642;2023-05-08T02:36:22;95703.09;;;13.61;79.37
26978;BME280;56314;48.088;11.642;2023-05-08T02:38:50;95700.66;;;13.48;78.94
26978;BME280;56314;48.088;11.642;2023-05-08T02:41:20;95695.63;;;13.45;79.18
26978;BME280;56314;48.088;11.642;2023-05-08T02:43:48;95699.81;;;13.48;78.47
26978;BME280;56314;48.088;11.642;2023-05-08T02:49:05;95712.94;;;13.59;79.19
26978;BME280;56314;48.088;11.642;2023-05-08T02:51:48;95708.81;;;13.45;78.94
26978;BME280;56314;48.088;11.642;2023-05-08T02:54:29;95709.06;;;13.42;78.23
26978;BME280;56314;48.088;11.642;2023-05-08T02:57:26;95716.97;;;13.42;79.13
26978;BME280;56314;48.088;11.642;2023-05-08T02:59:59;95707.53;;;13.39;79.77
26978;BME280;56314;48.088;11.642;2023-05-08T03:02:36;95711.09;;;13.38;79.56
26978;BME280;56314;48.088;11.642;2023-05-08T03:05:07;95708.25;;;13.42;79.69
26978;BME280;56314;48.088;11.642;2023-05-08T03:07:37;95717.47;;;13.36;80.06
26978;BME280;56314;48.088;11.642;2023-05-08T03:10:06;95709.69;;;13.46;81.10
26978;BME280;56314;48.088;11.642;2023-05-08T03:12:38;95707.16;;;13.44;80.30
26978;BME280;56314;48.088;11.642;2023-05-08T03:15:11;95713.75;;;13.38;80.84
26978;BME280;56314;48.088;11.642;2023-05-08T03:17:38;95711.09;;;13.38;80.54
26978;BME280;56314;48.088;11.642;2023-05-08T03:20:07;95709.56;;;13.36;79.78
26978;BME280;56314;48.088;11.642;2023-05-08T03:22:35;95706.34;;;13.32;81.39
26978;BME280;56314;48.088;11.642;2023-05-08T03:25:03;95709.81;;;13.33;80.53
26978;BME280;56314;48.088;11.642;2023-05-08T03:27:31;95710.78;;;13.32;80.12
26978;BME280;56314;48.088;11.642;2023-05-08T03:29:58;95711.50;;;13.34;80.43
26978;BME280;56314;48.088;11.642;2023-05-08T03:32:25;95713.09;;;13.25;80.69
26978;BME280;56314;48.088;11.642;2023-05-08T03:34:53;95715.84;;;13.23;80.54
26978;BME280;56314;48.088;11.642;2023-05-08T03:37:22;95711.53;;;13.22;81.14
26978;BME280;56314;48.088;11.642;2023-05-08T03:39:47;95718.34;;;13.25;81.87
26978;BME280;56314;48.088;11.642;2023-05-08T03:42:13;95711.16;;;13.27;81.09
26978;BME280;56314;48.088;11.642;2023-05-08T03:44:47;95716.69;;;13.24;81.08
26978;BME280;56314;48.088;11.642;2023-05-08T03:47:16;95713.94;;;13.26;81.13
26978;BME280;56314;48.088;11.642;2023-05-08T03:49:41;95715.16;;;13.21;81.13
26978;BME280;56314;48.088;11.642;2023-05-08T03:52:07;95713.72;;;13.17;80.24
26978;BME280;56314;48.088;11.642;2023-05-08T03:54:33;95718.31;;;13.15;80.02
26978;BME280;56314;48.088;11.642;2023-05-08T03:56:58;95724.63;;;13.13;80.75
26978;BME280;56314;48.088;11.642;2023-05-08T03:59:42;95724.41;;;13.16;81.03
26978;BME280;56314;48.088;11.642;2023-05-08T04:04:49;95729.09;;;13.12;80.63
26978;BME280;56314;48.088;11.642;2023-05-08T04:10:06;95736.88;;;13.14;80.04
26978;BME280;56314;48.088;11.642;2023-05-08T04:12:49;95727.41;;;13.11;80.27
26978;BME280;56314;48.088;11.642;2023-05-08T04:15:25;95741.13;;;13.05;81.41
26978;BME280;56314;48.088;11.642;2023-05-08T04:17:58;95736.75;;;13.15;81.27
26978;BME280;56314;48.088;11.642;2023-05-08T04:20:26;95743.94;;;13.13;80.83
26978;BME280;56314;48.088;11.642;2023-05-08T04:22:53;95738.22;;;13.08;80.61
26978;BME280;56314;48.088;11.642;2023-05-08T04:25:19;95743.28;;;13.00;80.64
26978;BME280;56314;48.088;11.642;2023-05-08T04:27:46;95743.66;;;12.95;80.74
26978;BME280;56314;48.088;11.642;2023-05-08T04:30:13;95742.91;;;13.04;81.03
26978;BME280;56314;48.088;11.642;2023-05-08T04:32:39;95746.38;;;13.05;79.13
26978;BME280;56314;48.088;11.642;2023-05-08T04:35:06;95747.25;;;12.94;80.30
26978;BME280;56314;48.088;11.642;2023-05-08T04:37:32;95750.34;;;12.99;80.80
26978;BME280;56314;48.088;11.642;2023-05-08T04:39:57;95752.91;;;12.89;79.73
26978;BME280;56314;48.088;11.642;2023-05-08T04:42:23;95759.72;;;12.92;79.95
26978;BME280;56314;48.088;11.642;2023-05-08T04:44:50;95757.69;;;12.84;80.97
26978;BME280;56314;48.088;11.642;2023-05-08T04:47:16;95759.72;;;12.92;80.79
26978;BME280;56314;48.088;11.642;2023-05-08T04:49:41;95757.56;;;12.97;80.33
26978;BME280;56314;48.088;11.642;2023-05-08T04:52:07;95763.78;;;12.96;79.39
26978;BME280;56314;48.088;11.642;2023-05-08T04:54:32;95763.53;;;12.88;79.11
26978;BME280;56314;48.088;11.642;2023-05-08T04:56:58;95764.53;;;12.87;80.74
26978;BME280;56314;48.088;11.642;2023-05-08T04:59:23;95775.41;;;12.82;79.84
26978;BME280;56314;48.088;11.642;2023-05-08T05:01:49;95777.00;;;12.73;80.97
26978;BME280;56314;48.088;11.642;2023-05-08T05:04:14;95774.25;;;12.75;80.81
26978;BME280;56314;48.088;11.642;2023-05-08T05:06:40;95773.66;;;12.71;80.75
26978;BME280;56314;48.088;11.642;2023-05-08T05:09:05;95780.13;;;12.67;80.25
26978;BME280;56314;48.088;11.642;2023-05-08T05:11:30;95782.16;;;12.63;80.48
26978;BME280;56314;48.088;11.642;2023-05-08T05:13:56;95778.94;;;12.71;81.24
26978;BME280;56314;48.088;11.642;2023-05-08T05:16:21;95788.88;;;12.68;81.15
26978;BME280;56314;48.088;11.642;2023-05-08T05:18:46;95792.81;;;12.73;80.36
26978;BME280;56314;48.088;11.642;2023-05-08T05:21:12;95792.81;;;12.73;81.15
26978;BME280;56314;48.088;11.642;2023-05-08T05:23:38;95794.84;;;12.70;82.30
26978;BME280;56314;48.088;11.642;2023-05-08T05:26:03;95791.75;;;12.65;81.56
26978;BME280;56314;48.088;11.642;2023-05-08T05:28:28;95796.31;;;12.51;82.30
26978;BME280;56314;48.088;11.642;2023-05-08T05:30:54;95795.72;;;12.59;82.32
26978;BME280;56314;48.088;11.642;2023-05-08T05:33:19;95794.25;;;12.55;81.94
26978;BME280;56314;48.088;11.642;2023-05-08T05:35:44;95801.22;;;12.56;82.37
26978;BME280;56314;48.088;11.642;2023-05-08T05:38:10;95806.00;;;12.62;84.25
26978;BME280;56314;48.088;11.642;2023-05-08T05:40:35;95797.03;;;12.65;84.89
26978;BME280;56314;48.088;11.642;2023-05-08T05:43:01;95805.38;;;12.70;84.42
26978;BME280;56314;48.088;11.642;2023-05-08T05:45:29;95800.09;;;12.70;83.11
26978;BME280;56314;48.088;11.642;2023-05-08T05:47:54;95801.44;;;12.64;82.23
26978;BME280;56314;48.088;11.642;2023-05-08T05:50:20;95808.03;;;12.58;80.43
26978;BME280;56314;48.088;11.642;2023-05-08T05:52:46;95806.72;;;12.53;81.40
26978;BME280;56314;48.088;11.642;2023-05-08T05:55:12;95808.50;;;12.63;81.92
26978;BME280;56314;48.088;11.642;2023-05-08T05:57:37;95804.94;;;12.53;81.88
26978;BME280;56314;48.088;11.642;2023-05-08T06:00:03;95809.69;;;12.59;81.56
26978;BME280;56314;48.088;11.642;2023-05-08T06:02:30;95816.28;;;12.54;80.40
26978;BME280;56314;48.088;11.642;2023-05-08T06:04:56;95814.50;;;12.54;80.46
26978;BME280;56314;48.088;11.642;2023-05-08T06:07:21;95815.81;;;12.60;81.11
26978;BME280;56314;48.088;11.642;2023-05-08T06:09:47;95810.28;;;12.63;79.98
26978;BME280;56314;48.088;11.642;2023-05-08T06:12:12;95820.72;;;12.65;79.83
26978;BME280;56314;48.088;11.642;2023-05-08T06:14:38;95815.69;;;12.61;79.03
26978;BME280;56314;48.088;11.642;2023-05-08T06:17:03;95817.22;;;12.75;79.83
26978;BME280;56314;48.088;11.642;2023-05-08T06:19:28;95816.53;;;12.73;77.75
26978;BME280;56314;48.088;11.642;2023-05-08T06:21:54;95817.50;;;12.61;78.95
26978;BME280;56314;48.088;11.642;2023-05-08T06:24:19;95815.25;;;12.56;77.95
26978;BME280;56314;48.088;11.642;2023-05-08T06:26:45;95811.28;;;12.51;79.46
26978;BME280;56314;48.088;11.642;2023-05-08T06:29:11;95818.34;;;12.61;80.36
26978;BME280;56314;48.088;11.642;2023-05-08T06:31:36;95825.13;;;12.75;81.03
26978;BME280;56314;48.088;11.642;2023-05-08T06:34:02;95821.31;;;12.80;80.69
26978;BME280;56314;48.088;11.642;2023-05-08T06:36:27;95822.75;;;12.84;79.88
26978;BME280;56314;48.088;11.642;2023-05-08T06:38:52;95824.53;;;12.83;82.83
26978;BME280;56314;48.088;11.642;2023-05-08T06:41:18;95830.91;;;12.81;78.31
26978;BME280;56314;48.088;11.642;2023-05-08T06:43:43;95826.72;;;12.78;77.28
26978;BME280;56314;48.088;11.642;2023-05-08T06:46:08;95832.34;;;12.73;76.79
26978;BME280;56314;48.088;11.642;2023-05-08T06:48:34;95833.03;;;12.75;78.37
26978;BME280;56314;48.088;11.642;2023-05-08T06:50:59;95835.44;;;12.67;78.63
26978;BME280;56314;48.088;11.642;2023-05-08T06:53:25;95838.66;;;12.82;78.54
26978;BME280;56314;48.088;11.642;2023-05-08T06:55:50;95835.19;;;12.93;77.71
26978;BME280;56314;48.088;11.642;2023-05-08T06:58:15;95839.88;;;12.89;77.03
26978;BME280;56314;48.088;11.642;2023-05-08T07:00:41;95840.22;;;12.96;78.69
26978;BME280;56314;48.088;11.642;2023-05-08T07:03:06;95836.72;;;12.96;75.62
26978;BME280;56314;48.088;11.642;2023-05-08T07:05:32;95837.69;;;12.94;75.82
26978;BME280;56314;48.088;11.642;2023-05-08T07:07:57;95839.84;;;13.01;79.08
26978;BME280;56314;48.088;11.642;2023-05-08T07:10:22;95841.63;;;13.12;78.73
26978;BME280;56314;48.088;11.642;2023-05-08T07:12:48;95841.38;;;13.15;76.14
26978;BME280;56314;48.088;11.642;2023-05-08T07:15:14;95846.03;;;13.22;75.82
26978;BME280;56314;48.088;11.642;2023-05-08T07:17:39;95845.28;;;13.32;74.15
26978;BME280;56314;48.088;11.642;2023-05-08T07:20:06;95840.00;;;13.43;74.47
26978;BME280;56314;48.088;11.642;2023-05-08T07:22:32;95844.41;;;13.54;73.74
26978;BME280;56314;48.088;11.642;2023-05-08T07:24:57;95841.81;;;13.43;72.43
26978;BME280;56314;48.088;11.642;2023-05-08T07:27:23;95843.13;;;13.48;71.86
26978;BME280;56314;48.088;11.642;2023-05-08T07:29:48;95839.38;;;13.51;71.86
26978;BME280;56314;48.088;11.642;2023-05-08T07:32:14;95841.38;;;13.59;71.63
26978;BME280;56314;48.088;11.642;2023-05-08T07:34:39;95840.97;;;13.75;71.13
26978;BME280;56314;48.088;11.642;2023-05-08T07:37:05;95843.03;;;13.92;72.08
26978;BME280;56314;48.088;11.642;2023-05-08T07:39:30;95852.19;;;13.88;70.30
26978;BME280;56314;48.088;11.642;2023-05-08T07:41:56;95848.72;;;13.88;70.23
26978;BME280;56314;48.088;11.642;2023-05-08T07:44:21;95849.91;;;13.83;70.48
26978;BME280;56314;48.088;11.642;2023-05-08T07:46:46;95854.03;;;13.76;69.18
26978;BME280;56314;48.088;11.642;2023-05-08T07:49:12;95849.97;;;13.72;69.46
26978;BME280;56314;48.088;11.642;2023-05-08T07:51:37;95857.50;;;13.77;70.03
26978;BME280;56314;48.088;11.642;2023-05-08T07:54:04;95850.88;;;13.82;70.42
26978;BME280;56314;48.088;11.642;2023-05-08T07:56:30;95853.31;;;13.95;69.12
26978;BME280;56314;48.088;11.642;2023-05-08T07:58:55;95849.81;;;14.06;68.72
26978;BME280;56314;48.088;11.642;2023-05-08T08:01:20;95850.59;;;14.18;68.99
26978;BME280;56314;48.088;11.642;2023-05-08T08:03:46;95841.97;;;14.26;67.60
26978;BME280;56314;48.088;11.642;2023-05-08T08:06:12;95850.69;;;14.38;66.84
26978;BME280;56314;48.088;11.642;2023-05-08T08:08:37;95847.22;;;14.37;66.00
26978;BME280;56314;48.088;11.642;2023-05-08T08:11:03;95848.28;;;14.35;66.73
26978;BME280;56314;48.088;11.642;2023-05-08T08:13:29;95844.78;;;14.24;65.92
26978;BME280;56314;48.088;11.642;2023-05-08T08:15:54;95853.19;;;14.39;66.73
26978;BME280;56314;48.088;11.642;2023-05-08T08:18:20;95850.13;;;14.34;66.81
26978;BME280;56314;48.088;11.642;2023-05-08T08:20:45;95840.50;;;14.33;66.61
26978;BME280;56314;48.088;11.642;2023-05-08T08:23:11;95844.88;;;14.44;67.01
26978;BME280;56314;48.088;11.642;2023-05-08T08:25:36;95856.28;;;14.44;66.73
26978;BME280;56314;48.088;11.642;2023-05-08T08:28:04;95848.13;;;14.57;65.66
26978;BME280;56314;48.088;11.642;2023-05-08T08:30:29;95845.47;;;14.78;65.57
26978;BME280;56314;48.088;11.642;2023-05-08T08:32:55;95851.22;;;14.84;65.08
26978;BME280;56314;48.088;11.642;2023-05-08T08:35:20;95852.47;;;14.89;64.83
26978;BME280;56314;48.088;11.642;2023-05-08T08:37:50;95854.72;;;14.94;64.35
26978;BME280;56314;48.088;11.642;2023-05-08T08:40:16;95851.00;;;15.16;63.59
26978;BME280;56314;48.088;11.642;2023-05-08T08:42:41;95855.16;;;15.09;63.17
26978;BME280;56314;48.088;11.642;2023-05-08T08:45:07;95849.22;;;15.36;63.03
26978;BME280;56314;48.088;11.642;2023-05-08T08:47:34;95843.16;;;15.65;61.85
26978;BME280;56314;48.088;11.642;2023-05-08T08:50:07;95845.94;;;16.03;61.18
26978;BME280;56314;48.088;11.642;2023-05-08T08:53:06;95839.41;;;16.55;58.01
26978;BME280;56314;48.088;11.642;2023-05-08T08:55:37;95840.44;;;16.82;57.98
26978;BME280;56314;48.088;11.642;2023-05-08T08:58:14;95835.31;;;17.08;56.32
26978;BME280;56314;48.088;11.642;2023-05-08T09:00:41;95831.78;;;17.35;55.83
26978;BME280;56314;48.088;11.642;2023-05-08T09:03:07;95828.53;;;18.14;54.92
26978;BME280;56314;48.088;11.642;2023-05-08T09:05:33;95818.06;;;18.39;52.31
26978;BME280;56314;48.088;11.642;2023-05-08T09:07:59;95820.41;;;18.76;51.55
26978;BME280;56314;48.088;11.642;2023-05-08T09:10:25;95828.31;;;19.37;51.57
26978;BME280;56314;48.088;11.642;2023-05-08T09:12:50;95824.88;;;19.78;49.08
26978;BME280;56314;48.088;11.642;2023-05-08T09:15:16;95815.16;;;20.60;48.07
26978;BME280;56314;48.088;11.642;2023-05-08T09:17:41;95805.34;;;20.60;47.30
26978;BME280;56314;48.088;11.642;2023-05-08T09:20:08;95818.50;;;21.42;46.57
26978;BME280;56314;48.088;11.642;2023-05-08T09:22:37;95807.94;;;22.03;45.52
26978;BME280;56314;48.088;11.642;2023-05-08T09:25:03;95811.06;;;22.30;43.46
26978;BME280;56314;48.088;11.642;2023-05-08T09:27:31;95807.59;;;22.59;43.08
26978;BME280;56314;48.088;11.642;2023-05-08T09:30:10;95810.72;;;22.78;43.16
26978;BME280;56314;48.088;11.642;2023-05-08T09:32:40;95813.69;;;22.98;42.36
26978;BME280;56314;48.088;11.642;2023-05-08T09:35:07;95806.03;;;23.25;42.62
26978;BME280;56314;48.088;11.642;2023-05-08T09:37:33;95805.75;;;23.20;42.19
26978;BME280;56314;48.088;11.642;2023-05-08T09:40:18;95809.88;;;23.23;42.62
26978;BME280;56314;48.088;11.642;2023-05-08T09:42:45;95810.44;;;23.33;43.03
26978;BME280;56314;48.088;11.642;2023-05-08T09:45:25;95807.34;;;23.51;42.29
26978;BME280;56314;48.088;11.642;2023-05-08T09:47:50;95803.00;;;23.72;40.91
26978;BME280;56314;48.088;11.642;2023-05-08T09:50:16;95800.78;;;23.75;41.82
26978;BME280;56314;48.088;11.642;2023-05-08T09:52:46;95811.81;;;23.65;40.42
26978;BME280;56314;48.088;11.642;2023-05-08T09:55:14;95808.13;;;24.10;40.52
26978;BME280;56314;48.088;11.642;2023-05-08T09:57:56;95812.88;;;24.08;39.37
26978;BME280;56314;48.088;11.642;2023-05-08T10:00:23;95811.06;;;23.72;41.21
26978;BME280;56314;48.088;11.642;2023-05-08T10:03:00;95821.41;;;23.38;41.79
26978;BME280;56314;48.088;11.642;2023-05-08T10:05:30;95819.66;;;23.15;42.77
26978;BME280;56314;48.088;11.642;2023-05-08T10:08:20;95821.53;;;22.85;43.87
26978;BME280;56314;48.088;11.642;2023-05-08T10:10:46;95820.59;;;22.63;43.57
26978;BME280;56314;48.088;11.642;2023-05-08T10:13:12;95817.50;;;22.36;44.58
26978;BME280;56314;48.088;11.642;2023-05-08T10:15:41;95818.31;;;22.21;44.84
26978;BME280;56314;48.088;11.642;2023-05-08T10:18:07;95817.00;;;22.17;44.64
26978;BME280;56314;48.088;11.642;2023-05-08T10:20:35;95822.81;;;21.82;44.13
26978;BME280;56314;48.088;11.642;2023-05-08T10:23:04;95819.03;;;21.68;44.21
26978;BME280;56314;48.088;11.642;2023-05-08T10:25:33;95824.00;;;22.18;45.34
26978;BME280;56314;48.088;11.642;2023-05-08T10:28:08;95819.31;;;21.50;45.65
26978;BME280;56314;48.088;11.642;2023-05-08T10:30:42;95815.16;;;21.79;45.57
26978;BME280;56314;48.088;11.642;2023-05-08T10:33:09;95813.50;;;22.17;45.35
26978;BME280;56314;48.088;11.642;2023-05-08T10:35:38;95807.81;;;21.96;44.38
26978;BME280;56314;48.088;11.642;2023-05-08T10:38:03;95811.44;;;22.04;46.46
26978;BME280;56314;48.088;11.642;2023-05-08T10:40:29;95808.59;;;22.43;45.76
26978;BME280;56314;48.088;11.642;2023-05-08T10:42:55;95811.25;;;22.43;43.87
26978;BME280;56314;48.088;11.642;2023-05-08T10:45:22;95799.28;;;22.16;44.26
26978;BME280;56314;48.088;11.642;2023-05-08T10:53:16;95801.63;;;22.34;44.75
26978;BME280;56314;48.088;11.642;2023-05-08T10:55:47;95803.72;;;22.09;46.56
26978;BME280;56314;48.088;11.642;2023-05-08T10:58:28;95797.09;;;21.81;44.90
26978;BME280;56314;48.088;11.642;2023-05-08T11:03:31;95796.63;;;21.46;47.64
26978;BME280;56314;48.088;11.642;2023-05-08T11:05:58;95803.88;;;21.37;46.09
26978;BME280;56314;48.088;11.642;2023-05-08T11:08:28;95798.66;;;21.13;47.45
26978;BME280;56314;48.088;11.642;2023-05-08T11:13:45;95804.53;;;21.08;47.49
26978;BME280;56314;48.088;11.642;2023-05-08T11:16:12;95803.06;;;20.97;48.52
26978;BME280;56314;48.088;11.642;2023-05-08T11:19:16;95804.09;;;20.88;47.61
26978;BME280;56314;48.088;11.642;2023-05-08T11:24:49;95801.81;;;20.60;48.58
26978;BME280;56314;48.088;11.642;2023-05-08T11:27:16;95799.38;;;20.50;49.42
26978;BME280;56314;48.088;11.642;2023-05-08T11:29:41;95802.72;;;20.36;49.39
26978;BME280;56314;48.088;11.642;2023-05-08T11:32:09;95796.41;;;20.20;51.14
26978;BME280;56314;48.088;11.642;2023-05-08T11:37:23;95801.25;;;20.17;51.64
26978;BME280;56314;48.088;11.642;2023-05-08T11:39:49;95790.25;;;20.28;50.60
26978;BME280;56314;48.088;11.642;2023-05-08T11:45:11;95802.59;;;20.04;50.96
26978;BME280;56314;48.088;11.642;2023-05-08T11:47:40;95800.94;;;20.03;52.24
26978;BME280;56314;48.088;11.642;2023-05-08T11:50:07;95796.28;;;20.05;50.13
26978;BME280;56314;48.088;11.642;2023-05-08T11:52:38;95792.22;;;19.76;51.22
26978;BME280;56314;48.088;11.642;2023-05-08T11:55:05;95809.56;;;19.80;51.26
26978;BME280;56314;48.088;11.642;2023-05-08T11:57:32;95795.91;;;19.75;52.82
26978;BME280;56314;48.088;11.642;2023-05-08T12:00:02;95804.06;;;19.82;52.66
26978;BME280;56314;48.088;11.642;2023-05-08T12:02:48;95798.94;;;19.89;51.48
26978;BME280;56314;48.088;11.642;2023-05-08T12:05:13;95812.56;;;19.69;51.16
26978;BME280;56314;48.088;11.642;2023-05-08T12:07:46;95807.88;;;19.54;50.67
26978;BME280;56314;48.088;11.642;2023-05-08T12:10:12;95807.19;;;19.61;50.89
26978;BME280;56314;48.088;11.642;2023-05-08T12:12:41;95817.03;;;19.60;52.90
26978;BME280;56314;48.088;11.642;2023-05-08T12:15:14;95805.38;;;19.61;51.94
26978;BME280;56314;48.088;11.642;2023-05-08T12:17:40;95812.34;;;19.46;52.12
26978;BME280;56314;48.088;11.642;2023-05-08T12:20:14;95810.84;;;19.43;52.16
26978;BME280;56314;48.088;11.642;2023-05-08T12:22:41;95820.50;;;19.44;53.50
26978;BME280;56314;48.088;11.642;2023-05-08T12:25:08;95808.03;;;19.53;52.62
26978;BME280;56314;48.088;11.642;2023-05-08T12:27:35;95819.34;;;19.38;53.21
26978;BME280;56314;48.088;11.642;2023-05-08T12:30:07;95814.13;;;19.29;54.07
26978;BME280;56314;48.088;11.642;2023-05-08T12:32:35;95816.13;;;19.18;53.95
26978;BME280;56314;48.088;11.642;2023-05-08T12:35:02;95818.78;;;19.18;53.40
26978;BME280;56314;48.088;11.642;2023-05-08T12:37:27;95808.31;;;19.17;52.51
26978;BME280;56314;48.088;11.642;2023-05-08T12:39:53;95813.88;;;18.97;51.25
26978;BME280;56314;48.088;11.642;2023-05-08T12:42:21;95813.13;;;18.79;53.80
26978;BME280;56314;48.088;11.642;2023-05-08T12:44:50;95817.78;;;18.85;55.43
26978;BME280;56314;48.088;11.642;2023-05-08T12:47:17;95814.81;;;18.88;54.24
26978;BME280;56314;48.088;11.642;2023-05-08T12:49:43;95817.00;;;18.92;54.87
26978;BME280;56314;48.088;11.642;2023-05-08T12:52:12;95810.06;;;19.00;52.61
26978;BME280;56314;48.088;11.642;2023-05-08T12:54:40;95811.75;;;18.74;52.07
26978;BME280;56314;48.088;11.642;2023-05-08T12:57:11;95811.75;;;18.74;53.77
26978;BME280;56314;48.088;11.642;2023-05-08T12:59:37;95812.22;;;18.70;53.32
26978;BME280;56314;48.088;11.642;2023-05-08T13:02:02;95810.59;;;18.77;55.54
26978;BME280;56314;48.088;11.642;2023-05-08T13:04:35;95810.97;;;18.90;53.06
26978;BME280;56314;48.088;11.642;2023-05-08T13:07:00;95805.56;;;19.00;52.51
26978;BME280;56314;48.088;11.642;2023-05-08T13:09:25;95807.06;;;19.03;54.11
26978;BME280;56314;48.088;11.642;2023-05-08T13:11:51;95794.47;;;19.13;53.32
26978;BME280;56314;48.088;11.642;2023-05-08T13:14:16;95803.22;;;18.97;52.21
26978;BME280;56314;48.088;11.642;2023-05-08T13:16:42;95807.13;;;18.76;53.30
26978;BME280;56314;48.088;11.642;2023-05-08T13:19:08;95808.66;;;18.87;54.71
26978;BME280;56314;48.088;11.642;2023-05-08T13:21:34;95802.56;;;18.95;53.91
26978;BME280;56314;48.088;11.642;2023-05-08T13:23:59;95801.03;;;18.92;54.81
26978;BME280;56314;48.088;11.642;2023-05-08T13:26:25;95799.84;;;18.87;54.73
26978;BME280;56314;48.088;11.642;2023-05-08T13:28:53;95797.41;;;18.94;54.28
26978;BME280;56314;48.088;11.642;2023-05-08T13:31:18;95793.22;;;18.91;54.28
26978;BME280;56314;48.088;11.642;2023-05-08T13:33:44;95795.38;;;18.87;55.32
26978;BME280;56314;48.088;11.642;2023-05-08T13:36:09;95791.47;;;18.73;54.23